Latest Weather Observations for Strahan

IDT60801

Issued at 7:02 am EDT Sunday 26 February 2017 (issued every 30 minutes, with the page automatically refreshed every 10 minutes)

About weather observations | Map of weather stations | Latest weather observations for TAS | Other Formats
Station Details ID: 097072 Name: STRAHAN AERODROME Lat: -42.16 Lon: 145.29 Height: 21.0 m
Data from the previous 72 hours. | See also: Recent months at Strahan
Date/Time
EDT
Temp
°C
App
Temp
°C
Dew
Point
°C
Rel
Hum
%
Delta-T
°C
Wind Press
QNH
hPa
Press
MSL
hPa
Rain since
9am
mm
Dir  Spd
km/h
Gust
km/h
Spd
kts
Gust
kts
26/07:00am 10.9 9.5 8.7 86 1.1 NE 6 7 3 4 1025.7 1025.6 0.0
26/06:30am 10.4 8.9 8.3 87 1.0 ESE 6 7 3 4 1025.5 1025.4 0.0
26/06:00am 10.5 8.9 8.1 85 1.2 ENE 6 7 3 4 1025.2 1025.1 0.0
26/05:30am 10.2 8.4 8.1 87 1.0 NNE 7 9 4 5 1025.1 1025.0 0.0
26/05:00am 9.3 7.0 7.3 87 0.9 NE 9 13 5 7 1025.3 1025.2 0.0
26/04:30am 9.1 7.2 7.5 90 0.8 NNE 7 9 4 5 1025.4 1025.3 0.0
26/04:00am 8.4 6.0 6.9 90 0.7 NNE 9 11 5 6 1025.2 1025.1 0.0
26/03:30am 8.5 6.6 6.8 89 0.8 NE 6 6 3 3 1025.7 1025.6 0.0
26/03:00am 8.4 6.5 6.9 90 0.7 N 6 9 3 5 1025.9 1025.8 0.0
26/02:30am 8.5 6.1 7.1 91 0.7 NNE 9 11 5 6 1025.9 1025.8 0.0
26/02:00am 8.2 6.1 6.7 90 0.7 N 7 11 4 6 1026.2 1026.1 0.0
26/01:30am 8.0 5.8 6.0 87 0.9 N 7 11 4 6 1026.4 1026.3 0.0
26/01:00am 8.3 6.2 6.6 89 0.8 N 7 11 4 6 1026.3 1026.2 0.0
26/12:30am 8.5 6.0 6.6 88 0.9 NNE 9 11 5 6 1026.3 1026.2 0.0
26/12:00am 8.4 5.9 6.5 88 0.9 NNE 9 11 5 6 1026.7 1026.6 0.0
 
Date/Time
EDT
Temp
°C
App
Temp
°C
Dew
Point
°C
Rel
Hum
%
Delta-T
°C
Wind Press
QNH
hPa
Press
MSL
hPa
Rain since
9am
mm
Dir  Spd
km/h
Gust
km/h
Spd
kts
Gust
kts
25/11:30pm 8.8 7.6 6.4 85 1.1 ENE 2 7 1 4 1027.0 1026.9 0.0
25/11:00pm 9.3 6.8 6.6 83 1.2 E 9 11 5 6 1027.1 1027.1 0.0
25/10:30pm 9.8 6.6 6.7 81 1.5 SE 13 15 7 8 1027.2 1027.2 0.0
25/10:00pm 10.4 7.2 6.7 78 1.7 SSE 13 17 7 9 1027.1 1027.1 0.0
25/09:30pm 9.6 7.0 6.1 79 1.6 S 9 15 5 8 1027.0 1026.9 0.0
25/09:00pm 10.3 6.7 6.6 78 1.7 SSW 15 19 8 10 1026.8 1026.7 0.0
25/08:30pm 10.6 7.3 6.2 74 2.1 SSW 13 15 7 8 1026.7 1026.6 0.0
25/08:00pm 11.9 8.2 6.2 68 2.7 S 15 19 8 10 1026.4 1026.3 0.0
25/07:30pm 13.9 9.9 6.5 61 3.6 SW 17 22 9 12 1026.2 1026.1 0.0
25/07:00pm 15.2 11.6 6.7 57 4.1 SSW 15 20 8 11 1025.8 1025.7 0.0
25/06:30pm 16.1 12.2 7.1 55 4.5 SSW 17 20 9 11 1025.8 1025.7 0.0
25/06:00pm 16.8 12.5 6.9 52 4.9 SSW 19 24 10 13 1025.7 1025.6 0.0
25/05:30pm 17.5 13.8 7.8 53 4.9 SSW 17 22 9 12 1025.6 1025.5 0.0
25/05:00pm 17.4 13.5 6.9 50 5.2 S 17 24 9 13 1025.7 1025.6 0.0
25/04:30pm 17.9 13.7 7.3 50 5.3 SSW 19 30 10 16 1026.0 1025.9 0.0
25/04:00pm 17.9 12.7 7.3 50 5.3 SSW 24 33 13 18 1026.4 1026.3 0.0
25/03:30pm 18.1 12.9 7.2 49 5.5 SSW 24 33 13 18 1026.4 1026.3 0.0
25/03:00pm 17.9 12.6 7.0 49 5.4 SW 24 32 13 17 1026.4 1026.3 0.0
25/02:30pm 17.8 13.5 7.0 49 5.4 SSW 19 26 10 14 1026.8 1026.7 0.0
25/02:00pm 18.3 14.4 7.1 48 5.6 SSE 17 26 9 14 1026.8 1026.7 0.0
25/01:30pm 18.2 15.2 7.6 50 5.4 S 13 20 7 11 1027.1 1027.1 0.0
25/01:00pm 17.8 13.8 6.7 48 5.5 SSE 17 24 9 13 1027.2 1027.2 0.0
25/12:30pm 17.0 13.0 6.8 51 5.1 S 17 28 9 15 1027.3 1027.3 0.0
25/12:00pm 16.0 11.1 5.3 49 5.1 SSE 20 30 11 16 1027.6 1027.6 0.0
25/11:30am 15.6 11.1 6.3 54 4.5 S 19 28 10 15 1027.7 1027.7 0.0
25/11:00am 15.2 10.8 7.3 59 3.9 SSE 20 28 11 15 1027.7 1027.7 0.0
25/10:30am 14.6 10.7 7.2 61 3.6 SSE 17 22 9 12 1027.9 1027.9 0.0
25/10:00am 14.1 10.6 7.4 64 3.3 SE 15 22 8 12 1027.8 1027.8 0.0
25/09:30am 13.2 10.9 7.4 68 2.8 SE 9 13 5 7 1027.9 1027.9 0.0
25/09:00am 11.2 9.2 6.9 75 2.0 SE 7 11 4 6 1028.1 1028.1 0.2
25/08:30am 9.7 8.7 7.3 85 1.1 NE 2 6 1 3 1028.1 1028.1 0.2
25/08:00am 7.2 6.3 6.1 93 0.5 CALM 0 0 0 0 1028.1 1028.1 0.2
25/07:30am 5.7 3.2 4.5 92 0.5 NNE 7 7 4 4 1027.9 1027.9 0.2
25/07:00am 5.6 3.6 4.2 91 0.6 NE 4 6 2 3 1027.7 1027.7 0.2
25/06:30am 6.8 4.1 5.6 92 0.5 ENE 9 11 5 6 1027.3 1027.3 0.2
25/06:00am 6.0 3.5 4.8 92 0.5 ESE 7 11 4 6 1027.0 1026.9 0.2
25/05:30am 6.1 3.8 4.7 91 0.6 ENE 6 7 3 4 1026.7 1026.6 0.2
25/05:00am 6.8 5.0 5.4 91 0.6 E 4 6 2 3 1026.5 1026.4 0.2
25/04:30am 7.0 6.0 5.5 90 0.7 CALM 0 0 0 0 1026.6 1026.5 0.2
25/04:00am 7.5 5.4 6.0 90 0.7 NE 6 7 3 4 1026.6 1026.5 0.2
25/03:30am 7.8 5.7 6.6 92 0.6 NE 7 9 4 5 1026.6 1026.5 0.2
25/03:00am 7.4 5.2 6.0 91 0.6 ENE 7 7 4 4 1026.6 1026.5 0.2
25/02:30am 7.6 6.3 6.2 91 0.6 ENE 2 7 1 4 1026.7 1026.6 0.2
25/02:00am 7.3 6.3 5.8 90 0.7 CALM 0 0 0 0 1026.9 1026.8 0.2
25/01:30am 7.5 6.5 5.8 89 0.8 CALM 0 0 0 0 1026.9 1026.8 0.2
25/01:00am 8.0 6.1 6.5 90 0.7 ENE 6 7 3 4 1026.9 1026.8 0.2
25/12:30am 7.7 6.7 5.7 87 0.9 CALM 0 0 0 0 1026.9 1026.8 0.2
25/12:00am 8.3 7.4 5.9 85 1.1 CALM 0 0 0 0 1026.9 1026.8 0.2
 
Date/Time
EDT
Temp
°C
App
Temp
°C
Dew
Point
°C
Rel
Hum
%
Delta-T
°C
Wind Press
QNH
hPa
Press
MSL
hPa
Rain since
9am
mm
Dir  Spd
km/h
Gust
km/h
Spd
kts
Gust
kts
24/11:30pm 8.9 6.2 5.8 81 1.4 SSE 9 11 5 6 1026.8 1026.7 0.2
24/11:00pm 9.3 6.3 5.9 79 1.5 SSW 11 15 6 8 1026.7 1026.6 0.2
24/10:30pm 10.8 7.6 6.7 76 1.9 S 13 19 7 10 1026.7 1026.6 0.2
24/10:00pm 11.1 7.8 6.6 74 2.1 S 13 19 7 10 1026.6 1026.5 0.2
24/09:30pm 10.9 7.3 6.6 75 2.0 S 15 20 8 11 1026.2 1026.1 0.2
24/09:00pm 11.9 8.8 7.2 73 2.2 S 13 20 7 11 1025.8 1025.7 0.2
24/08:30pm 12.0 8.5 7.1 72 2.4 S 15 20 8 11 1025.4 1025.3 0.2
24/08:00pm 13.3 9.1 7.5 68 2.8 S 19 26 10 14 1025.0 1024.9 0.2
24/07:30pm 14.0 8.7 6.8 62 3.5 SSW 24 33 13 18 1024.8 1024.7 0.2
24/07:00pm 14.1 9.4 7.9 66 3.1 SSW 22 32 12 17 1024.4 1024.3 0.2
24/06:30pm 14.5 10.2 9.5 72 2.6 SSW 22 30 12 16 1024.2 1024.1 0.2
24/06:00pm 14.1 10.1 10.5 79 1.9 SW 22 33 12 18 1023.9 1023.8 0.2
24/05:30pm 17.3 13.6 10.0 62 3.9 SSW 20 30 11 16 1023.6 1023.5 0.2
24/05:00pm 17.3 13.5 11.3 68 3.2 WSW 22 30 12 16 1023.4 1023.3 0.2
24/04:30pm 16.0 12.4 10.5 70 2.9 WSW 20 28 11 15 1023.4 1023.3 0.2
24/04:00pm 16.7 13.8 11.0 69 3.0 SSW 17 26 9 14 1023.3 1023.2 0.2
24/03:54pm 16.5 13.7 11.2 71 2.9 SSW 17 26 9 14 1023.3 1023.2 0.2
24/03:30pm 16.1 11.9 11.1 72 2.7 SSW 24 32 13 17 1023.4 1023.3 0.2
24/03:16pm 15.7 10.9 11.5 76 2.3 SSW 28 35 15 19 1023.5 1023.4 0.2
24/03:00pm 14.6 8.5 10.4 76 2.2 SSW 33 46 18 25 1023.7 1023.6 0.2
24/02:30pm 17.2 12.5 10.8 66 3.4 W 26 37 14 20 1023.3 1023.2 0.2
24/02:00pm 18.8 14.5 12.1 65 3.7 W 26 33 14 18 1023.3 1023.2 0.2
24/01:30pm 17.8 12.9 11.4 66 3.5 W 28 35 15 19 1023.3 1023.2 0.0
24/01:00pm 17.8 13.3 11.4 66 3.5 W 26 35 14 19 1023.2 1023.1 0.0
24/12:30pm 17.2 13.9 11.7 70 3.0 WNW 20 28 11 15 1023.2 1023.1 0.0
24/12:00pm 17.1 14.3 11.2 68 3.2 NW 17 22 9 12 1023.4 1023.3 0.0
24/11:30am 16.1 15.2 12.7 80 1.9 NW 9 13 5 7 1023.5 1023.4 0.0
24/11:00am 14.5 10.8 10.1 75 2.3 WNW 20 37 11 20 1023.8 1023.7 0.0
24/10:30am 15.7 12.7 9.4 66 3.3 NW 15 20 8 11 1023.3 1023.2 0.0
24/10:00am 15.4 13.0 10.0 70 2.8 NW 13 15 7 8 1023.1 1023.0 0.0
24/09:30am 14.4 11.3 8.8 69 2.8 W 15 22 8 12 1023.2 1023.1 0.0
24/09:00am 13.3 10.7 9.2 76 2.1 NW 13 20 7 11 1023.0 1022.9 1.6
24/08:30am 12.4 11.3 10.6 89 0.9 NNE 7 11 4 6 1022.8 1022.7 1.6
24/08:00am 12.4 11.1 10.1 86 1.2 N 7 13 4 7 1022.4 1022.3 1.6
24/07:30am 11.7 10.6 10.1 90 0.8 WNW 6 17 3 9 1022.1 1022.0 1.6
24/07:00am 11.5 9.5 10.1 91 0.7 NNE 11 15 6 8 1021.7 1021.6 1.6
24/06:30am 11.7 10.0 9.9 89 0.9 NE 9 13 5 7 1021.5 1021.4 1.6
24/06:00am 12.0 10.8 10.4 90 0.8 WSW 7 11 4 6 1021.2 1021.1 1.6
24/05:30am 11.3 9.9 9.6 89 0.9 N 7 11 4 6 1021.2 1021.1 1.6
24/05:00am 11.2 8.7 9.8 91 0.7 NNE 13 17 7 9 1020.7 1020.6 1.6
24/04:30am 11.1 9.0 9.9 92 0.6 NNE 11 15 6 8 1021.0 1020.9 1.6
24/04:00am 11.1 9.1 10.0 93 0.6 NNE 11 15 6 8 1021.1 1021.0 1.6
24/03:30am 11.1 8.7 10.2 94 0.5 NNE 13 15 7 8 1021.2 1021.1 1.6
24/03:00am 10.9 8.9 10.0 94 0.5 NNE 11 13 6 7 1021.1 1021.0 1.6
24/02:30am 10.7 8.6 9.6 93 0.6 NNE 11 13 6 7 1021.2 1021.1 1.6
24/02:00am 11.1 9.1 10.0 93 0.6 NNE 11 15 6 8 1021.3 1021.2 1.6
24/01:30am 11.6 9.7 10.5 93 0.6 NNE 11 15 6 8 1021.6 1021.5 1.6
24/01:00am 11.7 9.8 10.6 93 0.6 NNE 11 13 6 7 1021.7 1021.6 1.6
24/12:30am 11.8 10.7 10.7 93 0.6 NNE 7 11 4 6 1021.8 1021.7 1.6
24/12:00am 11.9 10.5 10.8 93 0.6 NE 9 13 5 7 1021.8 1021.7 1.6
 
Date/Time
EDT
Temp
°C
App
Temp
°C
Dew
Point
°C
Rel
Hum
%
Delta-T
°C
Wind Press
QNH
hPa
Press
MSL
hPa
Rain since
9am
mm
Dir  Spd
km/h
Gust
km/h
Spd
kts
Gust
kts
23/11:30pm 11.9 10.5 10.8 93 0.6 ENE 9 13 5 7 1021.8 1021.7 1.6
23/11:00pm 12.3 11.0 11.2 93 0.6 ENE 9 11 5 6 1021.8 1021.7 1.6
23/10:30pm 12.1 12.0 10.7 91 0.7 SW 2 7 1 4 1021.7 1021.6 1.6
23/10:10pm 12.1 11.2 10.8 92 0.7 WSW 6 9 3 5 1021.6 1021.5 1.6
23/10:00pm 12.3 11.5 11.2 93 0.6 W 6 7 3 4 1021.6 1021.5 1.6
23/09:30pm 12.6 12.0 11.7 94 0.5 E 6 9 3 5 1021.0 1020.9 1.4
23/09:21pm 12.6 12.0 11.7 94 0.5 SE 6 7 3 4 1020.9 1020.8 1.4
23/09:01pm 12.6 12.0 11.7 94 0.5 SSE 6 7 3 4 1020.4 1020.3 1.4
23/09:00pm 12.6 12.0 11.7 94 0.5 SSE 6 7 3 4 1020.4 1020.3 1.4
23/08:43pm 12.6 11.0 11.7 94 0.5 S 11 15 6 8 1019.9 1019.8 1.4
23/08:30pm 12.6 10.6 11.5 93 0.6 SSW 13 17 7 9 1019.7 1019.6 1.4
23/08:27pm 12.7 10.7 11.6 93 0.6 SW 13 20 7 11 1019.7 1019.6 1.4
23/08:14pm 12.7 10.0 11.6 93 0.6 SW 17 22 9 12 1019.5 1019.4 1.4
23/08:00pm 12.9 10.2 11.8 93 0.6 SW 17 22 9 12 1019.3 1019.2 1.2
23/07:30pm 13.3 10.4 12.4 94 0.5 SW 19 26 10 14 1018.8 1018.7 1.2
23/07:00pm 13.7 10.4 12.8 94 0.5 SW 22 32 12 17 1018.4 1018.3 1.2
23/06:30pm 14.3 11.1 13.0 92 0.7 SW 22 30 12 16 1017.9 1017.8 1.0
23/06:28pm 14.4 11.2 13.1 92 0.7 WSW 22 30 12 16 1017.9 1017.8 1.0
23/06:05pm 15.1 11.7 13.6 91 0.8 WSW 24 32 13 17 1017.6 1017.5 1.0
23/06:00pm 15.2 11.8 13.7 91 0.8 WSW 24 32 13 17 1017.5 1017.4 1.0
23/05:53pm 15.5 12.6 13.9 90 0.9 W 22 30 12 16 1017.4 1017.3 1.0
23/05:49pm 15.6 12.9 13.6 88 1.1 W 20 28 11 15 1017.3 1017.2 1.0
23/05:30pm 16.3 14.1 13.4 83 1.6 WNW 17 20 9 11 1017.0 1016.9 1.0
23/05:19pm 16.0 14.0 13.8 87 1.2 WNW 17 26 9 14 1016.8 1016.7 1.0
23/05:01pm 15.7 13.2 13.4 86 1.3 WNW 19 26 10 14 1016.7 1016.6 1.0
23/05:00pm 16.2 13.9 14.2 88 1.1 WNW 19 26 10 14 1016.7 1016.6 1.0
23/04:57pm 16.1 13.7 13.9 87 1.2 WNW 19 26 10 14 1016.7 1016.6 1.0
23/04:36pm 16.2 13.2 13.7 85 1.4 WNW 22 30 12 16 1016.4 1016.3 1.0
23/04:30pm 16.8 14.2 13.7 82 1.8 WNW 20 30 11 16 1016.2 1016.1 1.0
23/04:00pm 18.4 16.0 14.5 78 2.3 NW 20 28 11 15 1015.8 1015.7 1.0
23/03:47pm 18.8 16.0 14.3 75 2.6 NW 22 30 12 16 1015.7 1015.6 1.0
23/03:30pm 19.1 17.9 16.0 82 1.8 WNW 17 22 9 12 1015.5 1015.5 1.0
23/03:06pm 17.1 15.2 15.1 88 1.2 NW 19 26 10 14 1015.7 1015.6 1.0
23/03:00pm 17.5 15.7 15.5 88 1.2 NW 19 30 10 16 1015.7 1015.6 1.0
23/02:30pm 16.8 14.5 14.6 87 1.3 NNW 20 30 11 16 1015.7 1015.6 1.0
23/02:00pm 16.8 14.4 14.4 86 1.4 NNW 20 28 11 15 1015.2 1015.2 1.0
23/01:40pm 16.8 14.7 15.2 90 0.9 NW 20 28 11 15 1015.1 1015.1 1.0
23/01:30pm 16.3 13.7 15.0 92 0.8 NW 22 30 12 16 1015.0 1015.0 1.0
23/01:13pm 15.6 12.8 14.3 92 0.7 NW 22 30 12 16 1015.0 1015.0 0.8
23/01:01pm 15.3 12.0 14.0 92 0.7 NW 24 33 13 18 1014.9 1014.9 0.8
23/01:00pm 15.5 12.3 14.2 92 0.7 NW 24 32 13 17 1014.9 1014.9 0.8
23/12:56pm 15.6 12.1 14.5 93 0.6 WNW 26 37 14 20 1014.8 1014.8 0.8
23/12:35pm 15.8 11.9 14.3 91 0.9 NW 28 39 15 21 1014.5 1014.5 0.6
23/12:30pm 15.7 11.2 13.9 89 1.0 NW 30 39 16 21 1014.4 1014.4 0.4
23/12:20pm 16.3 12.4 14.5 89 1.0 NW 28 41 15 22 1014.2 1014.2 0.4
23/12:18pm 16.5 13.1 14.7 89 1.0 NNW 26 41 14 22 1014.1 1014.1 0.4
23/12:07pm 16.6 13.7 15.1 91 0.9 NW 24 32 13 17 1014.1 1014.1 0.4
23/12:00pm 16.2 13.9 14.7 91 0.9 NW 20 30 11 16 1013.9 1013.9 0.4
23/11:56am 16.4 14.3 15.1 92 0.8 NW 20 30 11 16 1013.9 1013.9 0.4
23/11:38am 15.9 11.7 13.6 86 1.3 NW 28 39 15 21 1013.7 1013.7 0.0
23/11:31am 16.6 12.6 14.1 85 1.4 NW 28 39 15 21 1013.5 1013.5 0.0
23/11:30am 16.8 12.8 14.1 84 1.5 NW 28 39 15 21 1013.5 1013.5 0.0
23/11:00am 17.2 13.3 14.5 84 1.6 NW 28 35 15 19 1012.9 1012.9 0.0
23/10:30am 17.1 13.1 14.2 83 1.7 NW 28 35 15 19 1012.7 1012.7 0.0
23/10:00am 16.6 12.5 13.9 84 1.5 NW 28 41 15 22 1012.2 1012.2 0.0
23/09:30am 16.4 10.2 13.7 84 1.5 NNW 39 48 21 26 1011.5 1011.5 0.0
23/09:02am 16.2 11.2 13.9 86 1.3 NW 33 44 18 24 1011.2 1011.2 0.0
23/09:00am 16.2 11.2 13.9 86 1.3 NW 33 44 18 24 1011.2 1011.2 0.0
23/08:50am 16.1 10.7 13.8 86 1.3 NW 35 48 19 26 1011.0 1011.0 0.0
23/08:34am 15.9 10.5 13.9 88 1.1 NW 35 54 19 29 1010.7 1010.7 0.0
23/08:30am 15.9 10.1 13.9 88 1.1 NW 37 54 20 29 1010.6 1010.6 0.0
23/08:18am 15.8 10.0 14.0 89 1.0 NNW 37 50 20 27 1010.3 1010.3 0.0
23/08:00am 15.8 10.9 14.2 90 0.9 NNW 33 44 18 24 1009.9 1009.9 0.0
23/07:42am 16.2 11.7 13.9 86 1.3 NNW 30 48 16 26 1009.5 1009.5 0.0
23/07:30am 15.9 10.8 13.6 86 1.3 NNW 33 43 18 23 1009.1 1009.1 0.0

Other Formats:

Comma delimited format used in spreadsheet applications
http://www.bom.gov.au/fwo/IDT60801/IDT60801.94956.axf

JavaScript Object Notation format (JSON) in row-major order
http://www.bom.gov.au/fwo/IDT60801/IDT60801.94956.json